Weather at KIZAD Airport

Public forecast

Using degrees Celsius for public forecast. Weather courtesy of forecast.io.

Closest aviation weather report (METAR) to KIZAD Airport

Closest report is Abu Dhabi International Airport, 19.6 nm (36.4 km) SSW.

2024/06/14 15:00 (retrieved 20 minutes ago)

OMAA 141500Z 34007KT CAVOK 37/17 Q0998 NOSIG

Closest aviation forecast (TAF) to KIZAD Airport

Closest forecast is Abu Dhabi International Airport, 19.6 nm (36.4 km) SSW.

2024/06/14 12:00 (retrieved 3 hours ago)

TAF OMAA 141100Z 1412/1518 33012KT 8000 NSC BECMG 1415/1417 15006KT BECMG 1508/1510 33012KT BECMG 1516/1518 05005KT